Grainfield, Kansas
Current Conditions -  °F | °C
As of 11:35 PM on Sunday 21 Dec 2014 (Local Time) from KCBK Reporting Station
Scattered Clouds Scattered Clouds  
Wind Chill: 29°   Ceiling: Unl
Heat Index: 37°   Visibility: 10mi
Dew Point: 37°   Wind: 13mph
Humidity: 100%   Direction: 290°WNW
Pressure: 29.54"   Gusts: NA
Location:  39.11°N, 100.47°W
Report Text: KCBK 220535Z AUTO 29011KT 10SM SCT090 03/03 A2954 RMK AO2
Loading
Personal Weather Stations






























Interactive Weather Map New forecast layout! Learn more

10-Day Weather Forecast

Advertisements
Track Severe Weather on mobile